sensor_id;sensor_type;location;lat;lon;timestamp;temperature;humidity
40454;DHT22;26160;51.858;4.398;2022-10-18T00:02:07;13.80;99.90
40454;DHT22;26160;51.858;4.398;2022-10-18T00:04:33;13.80;99.90
40454;DHT22;26160;51.858;4.398;2022-10-18T00:06:59;13.70;99.90
40454;DHT22;26160;51.858;4.398;2022-10-18T00:09:25;13.70;99.90
40454;DHT22;26160;51.858;4.398;2022-10-18T00:11:55;13.70;99.90
40454;DHT22;26160;51.858;4.398;2022-10-18T00:14:21;13.60;99.90
40454;DHT22;26160;51.858;4.398;2022-10-18T00:16:48;13.60;99.90
40454;DHT22;26160;51.858;4.398;2022-10-18T00:19:14;13.60;99.90
40454;DHT22;26160;51.858;4.398;2022-10-18T00:21:40;13.50;99.90
40454;DHT22;26160;51.858;4.398;2022-10-18T00:24:06;13.50;99.90
40454;DHT22;26160;51.858;4.398;2022-10-18T00:26:32;13.40;99.90
40454;DHT22;26160;51.858;4.398;2022-10-18T00:29:01;13.40;99.90
40454;DHT22;26160;51.858;4.398;2022-10-18T00:31:34;13.40;99.90
40454;DHT22;26160;51.858;4.398;2022-10-18T00:34:01;13.30;99.90
40454;DHT22;26160;51.858;4.398;2022-10-18T00:36:30;13.30;99.90
40454;DHT22;26160;51.858;4.398;2022-10-18T00:38:56;13.30;99.90
40454;DHT22;26160;51.858;4.398;2022-10-18T00:41:24;13.30;99.90
40454;DHT22;26160;51.858;4.398;2022-10-18T00:44:01;13.20;99.90
40454;DHT22;26160;51.858;4.398;2022-10-18T00:46:30;13.20;99.90
40454;DHT22;26160;51.858;4.398;2022-10-18T00:49:17;13.20;99.90
40454;DHT22;26160;51.858;4.398;2022-10-18T00:52:18;13.20;99.90
40454;DHT22;26160;51.858;4.398;2022-10-18T00:54:47;13.20;99.90
40454;DHT22;26160;51.858;4.398;2022-10-18T00:57:14;13.20;99.90
40454;DHT22;26160;51.858;4.398;2022-10-18T00:59:41;13.20;99.90
40454;DHT22;26160;51.858;4.398;2022-10-18T02:29:35;12.50;99.90
40454;DHT22;26160;51.858;4.398;2022-10-18T02:44:39;12.30;99.90
40454;DHT22;26160;51.858;4.398;2022-10-18T03:10:53;11.90;99.90
40454;DHT22;26160;51.858;4.398;2022-10-18T05:01:50;11.10;99.90
40454;DHT22;26160;51.858;4.398;2022-10-18T05:27:36;10.80;99.90
40454;DHT22;26160;51.858;4.398;2022-10-18T05:30:25;10.70;99.90
40454;DHT22;26160;51.858;4.398;2022-10-18T05:40:42;10.50;99.90
40454;DHT22;26160;51.858;4.398;2022-10-18T05:55:16;10.40;99.90
40454;DHT22;26160;51.858;4.398;2022-10-18T05:57:42;10.30;99.90
40454;DHT22;26160;51.858;4.398;2022-10-18T06:00:09;10.30;99.90
40454;DHT22;26160;51.858;4.398;2022-10-18T06:02:36;10.30;99.90
40454;DHT22;26160;51.858;4.398;2022-10-18T06:05:03;10.30;99.90
40454;DHT22;26160;51.858;4.398;2022-10-18T06:07:29;10.20;99.90
40454;DHT22;26160;51.858;4.398;2022-10-18T06:09:55;10.20;99.90
40454;DHT22;26160;51.858;4.398;2022-10-18T06:12:21;10.30;99.90
40454;DHT22;26160;51.858;4.398;2022-10-18T06:14:47;10.30;99.90
40454;DHT22;26160;51.858;4.398;2022-10-18T06:17:14;10.20;99.90
40454;DHT22;26160;51.858;4.398;2022-10-18T06:19:40;10.20;99.90
40454;DHT22;26160;51.858;4.398;2022-10-18T06:22:10;10.20;99.90
40454;DHT22;26160;51.858;4.398;2022-10-18T06:24:36;10.20;99.90
40454;DHT22;26160;51.858;4.398;2022-10-18T06:27:02;10.20;99.90
40454;DHT22;26160;51.858;4.398;2022-10-18T06:29:38;10.20;99.90
40454;DHT22;26160;51.858;4.398;2022-10-18T06:32:05;10.20;99.90
40454;DHT22;26160;51.858;4.398;2022-10-18T06:34:32;10.10;99.90
40454;DHT22;26160;51.858;4.398;2022-10-18T06:36:58;10.20;99.90
40454;DHT22;26160;51.858;4.398;2022-10-18T06:39:27;10.10;99.90
40454;DHT22;26160;51.858;4.398;2022-10-18T06:41:54;10.10;99.90
40454;DHT22;26160;51.858;4.398;2022-10-18T06:44:21;10.10;99.90
40454;DHT22;26160;51.858;4.398;2022-10-18T06:46:48;10.10;99.90
40454;DHT22;26160;51.858;4.398;2022-10-18T06:49:14;10.10;99.90
40454;DHT22;26160;51.858;4.398;2022-10-18T06:51:42;10.10;99.90
40454;DHT22;26160;51.858;4.398;2022-10-18T06:54:09;10.10;99.90
40454;DHT22;26160;51.858;4.398;2022-10-18T06:56:35;10.10;99.90
40454;DHT22;26160;51.858;4.398;2022-10-18T06:59:02;10.20;99.90
40454;DHT22;26160;51.858;4.398;2022-10-18T07:01:28;10.20;99.90
40454;DHT22;26160;51.858;4.398;2022-10-18T07:03:55;10.20;99.90
40454;DHT22;26160;51.858;4.398;2022-10-18T07:06:22;10.20;99.90
40454;DHT22;26160;51.858;4.398;2022-10-18T07:08:50;10.20;99.90
40454;DHT22;26160;51.858;4.398;2022-10-18T07:11:23;10.20;99.90
40454;DHT22;26160;51.858;4.398;2022-10-18T07:13:57;10.20;99.90
40454;DHT22;26160;51.858;4.398;2022-10-18T07:16:28;10.20;99.90
40454;DHT22;26160;51.858;4.398;2022-10-18T07:18:55;10.30;99.90
40454;DHT22;26160;51.858;4.398;2022-10-18T07:21:23;10.30;99.90
40454;DHT22;26160;51.858;4.398;2022-10-18T07:23:51;10.40;99.90
40454;DHT22;26160;51.858;4.398;2022-10-18T07:26:30;10.40;99.90
40454;DHT22;26160;51.858;4.398;2022-10-18T07:29:08;10.50;99.90
40454;DHT22;26160;51.858;4.398;2022-10-18T07:31:35;10.50;99.90
40454;DHT22;26160;51.858;4.398;2022-10-18T07:34:04;10.60;99.90
40454;DHT22;26160;51.858;4.398;2022-10-18T07:36:30;10.70;99.90
40454;DHT22;26160;51.858;4.398;2022-10-18T07:38:57;10.90;99.90
40454;DHT22;26160;51.858;4.398;2022-10-18T07:41:23;11.10;99.90
40454;DHT22;26160;51.858;4.398;2022-10-18T07:43:51;11.40;99.90
40454;DHT22;26160;51.858;4.398;2022-10-18T07:46:21;11.70;99.90
40454;DHT22;26160;51.858;4.398;2022-10-18T07:48:48;11.90;99.90
40454;DHT22;26160;51.858;4.398;2022-10-18T07:51:14;12.10;99.90
40454;DHT22;26160;51.858;4.398;2022-10-18T07:53:40;12.30;99.90
40454;DHT22;26160;51.858;4.398;2022-10-18T07:56:09;12.50;99.90
40454;DHT22;26160;51.858;4.398;2022-10-18T07:58:42;12.70;99.90
40454;DHT22;26160;51.858;4.398;2022-10-18T08:01:08;12.80;99.90
40454;DHT22;26160;51.858;4.398;2022-10-18T08:03:35;12.90;99.90
40454;DHT22;26160;51.858;4.398;2022-10-18T08:06:03;13.00;99.90
40454;DHT22;26160;51.858;4.398;2022-10-18T08:08:30;13.00;99.90
40454;DHT22;26160;51.858;4.398;2022-10-18T08:11:17;13.10;99.90
40454;DHT22;26160;51.858;4.398;2022-10-18T08:13:44;13.20;99.90
40454;DHT22;26160;51.858;4.398;2022-10-18T08:16:13;13.20;99.90
40454;DHT22;26160;51.858;4.398;2022-10-18T08:18:40;13.30;99.90
40454;DHT22;26160;51.858;4.398;2022-10-18T08:21:09;13.30;99.90
40454;DHT22;26160;51.858;4.398;2022-10-18T08:23:36;13.40;99.90
40454;DHT22;26160;51.858;4.398;2022-10-18T08:26:08;13.50;99.90
40454;DHT22;26160;51.858;4.398;2022-10-18T08:28:35;13.50;99.90
40454;DHT22;26160;51.858;4.398;2022-10-18T08:31:17;13.60;99.90
40454;DHT22;26160;51.858;4.398;2022-10-18T08:33:46;13.60;99.90
40454;DHT22;26160;51.858;4.398;2022-10-18T08:36:16;13.50;99.90
40454;DHT22;26160;51.858;4.398;2022-10-18T08:38:46;13.60;99.90
40454;DHT22;26160;51.858;4.398;2022-10-18T08:41:23;13.60;99.90
40454;DHT22;26160;51.858;4.398;2022-10-18T08:44:16;13.70;99.90
40454;DHT22;26160;51.858;4.398;2022-10-18T08:46:49;13.70;99.90
40454;DHT22;26160;51.858;4.398;2022-10-18T08:49:42;13.60;99.90
40454;DHT22;26160;51.858;4.398;2022-10-18T08:55:16;13.80;99.90
40454;DHT22;26160;51.858;4.398;2022-10-18T08:57:46;13.80;99.90
40454;DHT22;26160;51.858;4.398;2022-10-18T09:00:21;13.80;99.90
40454;DHT22;26160;51.858;4.398;2022-10-18T09:03:41;13.80;99.90
40454;DHT22;26160;51.858;4.398;2022-10-18T09:05:53;13.90;99.90
40454;DHT22;26160;51.858;4.398;2022-10-18T09:11:23;14.00;99.90
40454;DHT22;26160;51.858;4.398;2022-10-18T09:17:20;14.00;99.90
40454;DHT22;26160;51.858;4.398;2022-10-18T09:22:27;14.10;99.90
40454;DHT22;26160;51.858;4.398;2022-10-18T09:25:09;14.20;99.90
40454;DHT22;26160;51.858;4.398;2022-10-18T09:27:52;14.20;99.90
40454;DHT22;26160;51.858;4.398;2022-10-18T09:30:28;14.20;99.90
40454;DHT22;26160;51.858;4.398;2022-10-18T09:33:06;14.20;99.90
40454;DHT22;26160;51.858;4.398;2022-10-18T09:38:20;14.40;99.90
40454;DHT22;26160;51.858;4.398;2022-10-18T09:40:56;14.40;99.90
40454;DHT22;26160;51.858;4.398;2022-10-18T09:43:36;14.50;99.90
40454;DHT22;26160;51.858;4.398;2022-10-18T09:46:04;14.60;99.90
40454;DHT22;26160;51.858;4.398;2022-10-18T09:51:40;14.90;99.90
40454;DHT22;26160;51.858;4.398;2022-10-18T09:54:36;15.20;99.90
40454;DHT22;26160;51.858;4.398;2022-10-18T09:59:45;15.50;99.90
40454;DHT22;26160;51.858;4.398;2022-10-18T10:02:14;15.40;99.90
40454;DHT22;26160;51.858;4.398;2022-10-18T10:04:41;15.50;99.90
40454;DHT22;26160;51.858;4.398;2022-10-18T10:07:11;15.50;99.90
40454;DHT22;26160;51.858;4.398;2022-10-18T10:10:05;15.50;99.90
40454;DHT22;26160;51.858;4.398;2022-10-18T10:12:35;15.70;99.90
40454;DHT22;26160;51.858;4.398;2022-10-18T10:15:27;15.70;99.90
40454;DHT22;26160;51.858;4.398;2022-10-18T10:18:20;15.90;99.90
40454;DHT22;26160;51.858;4.398;2022-10-18T10:20:53;15.90;99.90
40454;DHT22;26160;51.858;4.398;2022-10-18T10:23:29;16.00;99.90
40454;DHT22;26160;51.858;4.398;2022-10-18T10:26:27;16.10;99.90
40454;DHT22;26160;51.858;4.398;2022-10-18T10:28:54;16.30;99.90
40454;DHT22;26160;51.858;4.398;2022-10-18T10:34:01;16.50;99.90
40454;DHT22;26160;51.858;4.398;2022-10-18T10:36:29;16.60;99.90
40454;DHT22;26160;51.858;4.398;2022-10-18T10:41:36;16.90;99.90
40454;DHT22;26160;51.858;4.398;2022-10-18T10:44:14;17.10;99.90
40454;DHT22;26160;51.858;4.398;2022-10-18T10:46:40;17.20;99.90
40454;DHT22;26160;51.858;4.398;2022-10-18T10:49:21;17.30;99.90
40454;DHT22;26160;51.858;4.398;2022-10-18T10:51:59;17.40;99.90
40454;DHT22;26160;51.858;4.398;2022-10-18T10:54:26;17.60;99.90
40454;DHT22;26160;51.858;4.398;2022-10-18T10:57:02;17.70;99.90
40454;DHT22;26160;51.858;4.398;2022-10-18T10:59:39;17.80;99.90
40454;DHT22;26160;51.858;4.398;2022-10-18T11:04:45;18.00;99.90
40454;DHT22;26160;51.858;4.398;2022-10-18T11:07:34;18.10;99.90
40454;DHT22;26160;51.858;4.398;2022-10-18T11:15:43;18.10;99.90
40454;DHT22;26160;51.858;4.398;2022-10-18T11:18:30;18.20;99.90
40454;DHT22;26160;51.858;4.398;2022-10-18T11:21:10;18.30;99.90
40454;DHT22;26160;51.858;4.398;2022-10-18T11:23:39;18.30;99.90
40454;DHT22;26160;51.858;4.398;2022-10-18T11:29:00;18.40;99.90
40454;DHT22;26160;51.858;4.398;2022-10-18T11:37:20;18.60;99.90
40454;DHT22;26160;51.858;4.398;2022-10-18T11:42:38;18.70;99.90
40454;DHT22;26160;51.858;4.398;2022-10-18T11:50:53;18.80;99.90
40454;DHT22;26160;51.858;4.398;2022-10-18T11:53:40;18.90;99.90
40454;DHT22;26160;51.858;4.398;2022-10-18T11:59:41;19.00;99.90
40454;DHT22;26160;51.858;4.398;2022-10-18T12:02:27;19.00;99.90
40454;DHT22;26160;51.858;4.398;2022-10-18T12:04:59;19.00;99.90
40454;DHT22;26160;51.858;4.398;2022-10-18T12:07:33;18.90;99.90
40454;DHT22;26160;51.858;4.398;2022-10-18T12:10:03;19.10;99.90
40454;DHT22;26160;51.858;4.398;2022-10-18T12:12:34;19.00;99.90
40454;DHT22;26160;51.858;4.398;2022-10-18T12:15:06;19.00;99.90
40454;DHT22;26160;51.858;4.398;2022-10-18T12:17:43;19.00;99.90
40454;DHT22;26160;51.858;4.398;2022-10-18T12:20:16;19.10;99.90
40454;DHT22;26160;51.858;4.398;2022-10-18T12:22:58;19.30;99.90
40454;DHT22;26160;51.858;4.398;2022-10-18T12:25:30;19.30;99.90
40454;DHT22;26160;51.858;4.398;2022-10-18T12:28:08;19.40;99.90
40454;DHT22;26160;51.858;4.398;2022-10-18T12:33:43;19.40;99.90
40454;DHT22;26160;51.858;4.398;2022-10-18T12:38:59;19.40;99.90
40454;DHT22;26160;51.858;4.398;2022-10-18T12:41:30;19.30;99.90
40454;DHT22;26160;51.858;4.398;2022-10-18T12:44:03;19.30;99.90
40454;DHT22;26160;51.858;4.398;2022-10-18T12:46:51;19.40;99.90
40454;DHT22;26160;51.858;4.398;2022-10-18T12:49:32;19.40;99.90
40454;DHT22;26160;51.858;4.398;2022-10-18T12:52:03;19.40;99.90
40454;DHT22;26160;51.858;4.398;2022-10-18T12:54:32;19.40;99.90
40454;DHT22;26160;51.858;4.398;2022-10-18T12:56:59;19.50;99.90
40454;DHT22;26160;51.858;4.398;2022-10-18T13:09:29;19.50;99.90
40454;DHT22;26160;51.858;4.398;2022-10-18T13:20:13;19.10;99.90
40454;DHT22;26160;51.858;4.398;2022-10-18T13:25:26;19.00;99.90
40454;DHT22;26160;51.858;4.398;2022-10-18T13:33:33;19.20;99.90
40454;DHT22;26160;51.858;4.398;2022-10-18T13:42:16;19.30;99.90
40454;DHT22;26160;51.858;4.398;2022-10-18T13:44:28;19.20;99.90
40454;DHT22;26160;51.858;4.398;2022-10-18T13:52:14;19.00;99.90
40454;DHT22;26160;51.858;4.398;2022-10-18T14:06:20;18.90;99.90
40454;DHT22;26160;51.858;4.398;2022-10-18T14:09:00;18.90;99.90
40454;DHT22;26160;51.858;4.398;2022-10-18T14:11:38;18.80;99.90
40454;DHT22;26160;51.858;4.398;2022-10-18T14:14:19;18.80;99.90
40454;DHT22;26160;51.858;4.398;2022-10-18T14:22:14;18.60;99.90
40454;DHT22;26160;51.858;4.398;2022-10-18T14:24:48;18.60;99.90
40454;DHT22;26160;51.858;4.398;2022-10-18T14:27:25;18.60;99.90
40454;DHT22;26160;51.858;4.398;2022-10-18T14:30:17;18.60;99.90
40454;DHT22;26160;51.858;4.398;2022-10-18T14:32:49;18.60;99.90
40454;DHT22;26160;51.858;4.398;2022-10-18T14:35:23;18.60;99.90
40454;DHT22;26160;51.858;4.398;2022-10-18T14:37:51;18.50;99.90
40454;DHT22;26160;51.858;4.398;2022-10-18T14:40:37;18.40;99.90
40454;DHT22;26160;51.858;4.398;2022-10-18T14:43:17;18.40;99.90
40454;DHT22;26160;51.858;4.398;2022-10-18T14:45:43;18.40;99.90
40454;DHT22;26160;51.858;4.398;2022-10-18T14:48:17;18.30;99.90
40454;DHT22;26160;51.858;4.398;2022-10-18T14:50:54;18.30;99.90
40454;DHT22;26160;51.858;4.398;2022-10-18T14:53:29;18.30;99.90
40454;DHT22;26160;51.858;4.398;2022-10-18T14:55:59;18.20;99.90
40454;DHT22;26160;51.858;4.398;2022-10-18T14:58:30;18.10;99.90
40454;DHT22;26160;51.858;4.398;2022-10-18T15:00:57;18.00;99.90
40454;DHT22;26160;51.858;4.398;2022-10-18T15:03:24;17.90;99.90
40454;DHT22;26160;51.858;4.398;2022-10-18T15:08:19;17.70;99.90
40454;DHT22;26160;51.858;4.398;2022-10-18T15:10:47;17.70;99.90
40454;DHT22;26160;51.858;4.398;2022-10-18T15:13:13;17.60;99.90
40454;DHT22;26160;51.858;4.398;2022-10-18T15:15:40;17.60;99.90
40454;DHT22;26160;51.858;4.398;2022-10-18T15:18:22;17.60;99.90
40454;DHT22;26160;51.858;4.398;2022-10-18T15:21:20;17.50;99.90
40454;DHT22;26160;51.858;4.398;2022-10-18T15:23:48;17.50;99.90
40454;DHT22;26160;51.858;4.398;2022-10-18T15:26:27;17.40;99.90
40454;DHT22;26160;51.858;4.398;2022-10-18T15:28:55;17.30;99.90
40454;DHT22;26160;51.858;4.398;2022-10-18T15:31:27;17.30;99.90
40454;DHT22;26160;51.858;4.398;2022-10-18T15:34:19;17.20;99.90
40454;DHT22;26160;51.858;4.398;2022-10-18T15:36:47;17.20;99.90
40454;DHT22;26160;51.858;4.398;2022-10-18T15:41:46;17.00;99.90
40454;DHT22;26160;51.858;4.398;2022-10-18T15:44:23;17.00;99.90
40454;DHT22;26160;51.858;4.398;2022-10-18T15:46:52;16.90;99.90
40454;DHT22;26160;51.858;4.398;2022-10-18T15:49:50;16.90;99.90
40454;DHT22;26160;51.858;4.398;2022-10-18T15:52:33;16.80;99.90
40454;DHT22;26160;51.858;4.398;2022-10-18T15:55:00;16.70;99.90
40454;DHT22;26160;51.858;4.398;2022-10-18T15:57:29;16.70;99.90
40454;DHT22;26160;51.858;4.398;2022-10-18T16:00:04;16.60;99.90
40454;DHT22;26160;51.858;4.398;2022-10-18T16:02:31;16.50;99.90
40454;DHT22;26160;51.858;4.398;2022-10-18T16:05:00;16.40;99.90
40454;DHT22;26160;51.858;4.398;2022-10-18T16:07:27;16.30;99.90
40454;DHT22;26160;51.858;4.398;2022-10-18T16:09:53;16.20;99.90
40454;DHT22;26160;51.858;4.398;2022-10-18T16:12:19;16.10;99.90
40454;DHT22;26160;51.858;4.398;2022-10-18T16:14:46;16.00;99.90
40454;DHT22;26160;51.858;4.398;2022-10-18T16:17:13;15.90;99.90
40454;DHT22;26160;51.858;4.398;2022-10-18T16:19:44;15.80;99.90
40454;DHT22;26160;51.858;4.398;2022-10-18T16:22:11;15.70;99.90
40454;DHT22;26160;51.858;4.398;2022-10-18T16:24:38;15.60;99.90
40454;DHT22;26160;51.858;4.398;2022-10-18T16:27:05;15.40;99.90
40454;DHT22;26160;51.858;4.398;2022-10-18T16:29:31;15.30;99.90
40454;DHT22;26160;51.858;4.398;2022-10-18T16:31:58;15.20;99.90
40454;DHT22;26160;51.858;4.398;2022-10-18T16:34:25;15.10;99.90
40454;DHT22;26160;51.858;4.398;2022-10-18T16:36:52;15.00;99.90
40454;DHT22;26160;51.858;4.398;2022-10-18T16:39:20;14.90;99.90
40454;DHT22;26160;51.858;4.398;2022-10-18T16:41:46;14.80;99.90
40454;DHT22;26160;51.858;4.398;2022-10-18T16:44:13;14.70;99.90
40454;DHT22;26160;51.858;4.398;2022-10-18T16:46:41;14.70;99.90
40454;DHT22;26160;51.858;4.398;2022-10-18T16:49:16;14.60;99.90
40454;DHT22;26160;51.858;4.398;2022-10-18T16:51:43;14.50;99.90
40454;DHT22;26160;51.858;4.398;2022-10-18T16:54:09;14.40;99.90
40454;DHT22;26160;51.858;4.398;2022-10-18T16:56:35;14.40;99.90
40454;DHT22;26160;51.858;4.398;2022-10-18T16:59:01;14.30;99.90
40454;DHT22;26160;51.858;4.398;2022-10-18T17:01:27;14.20;99.90
40454;DHT22;26160;51.858;4.398;2022-10-18T17:03:55;14.20;99.90
40454;DHT22;26160;51.858;4.398;2022-10-18T17:06:24;14.10;99.90
40454;DHT22;26160;51.858;4.398;2022-10-18T17:08:51;14.10;99.90
40454;DHT22;26160;51.858;4.398;2022-10-18T17:11:20;14.00;99.90
40454;DHT22;26160;51.858;4.398;2022-10-18T17:13:46;14.00;99.90
40454;DHT22;26160;51.858;4.398;2022-10-18T17:16:30;13.90;99.90
40454;DHT22;26160;51.858;4.398;2022-10-18T17:19:00;13.90;99.90
40454;DHT22;26160;51.858;4.398;2022-10-18T17:21:27;13.70;99.90
40454;DHT22;26160;51.858;4.398;2022-10-18T17:23:54;13.70;99.90
40454;DHT22;26160;51.858;4.398;2022-10-18T17:26:25;13.70;99.90
40454;DHT22;26160;51.858;4.398;2022-10-18T17:28:53;13.60;99.90
40454;DHT22;26160;51.858;4.398;2022-10-18T17:31:20;13.60;99.90
40454;DHT22;26160;51.858;4.398;2022-10-18T17:33:47;13.50;99.90
40454;DHT22;26160;51.858;4.398;2022-10-18T17:36:13;13.50;99.90
40454;DHT22;26160;51.858;4.398;2022-10-18T17:38:39;13.50;99.90
40454;DHT22;26160;51.858;4.398;2022-10-18T17:41:09;13.40;99.90
40454;DHT22;26160;51.858;4.398;2022-10-18T17:43:37;13.30;99.90
40454;DHT22;26160;51.858;4.398;2022-10-18T17:46:03;13.20;99.90
40454;DHT22;26160;51.858;4.398;2022-10-18T17:48:30;13.20;99.90
40454;DHT22;26160;51.858;4.398;2022-10-18T17:50:56;13.20;99.90
40454;DHT22;26160;51.858;4.398;2022-10-18T17:53:22;13.10;99.90
40454;DHT22;26160;51.858;4.398;2022-10-18T17:56:00;13.10;99.90
40454;DHT22;26160;51.858;4.398;2022-10-18T17:58:27;13.00;99.90
40454;DHT22;26160;51.858;4.398;2022-10-18T18:00:53;13.00;99.90
40454;DHT22;26160;51.858;4.398;2022-10-18T18:03:19;12.90;99.90
40454;DHT22;26160;51.858;4.398;2022-10-18T18:05:45;12.80;99.90
40454;DHT22;26160;51.858;4.398;2022-10-18T18:08:13;12.70;99.90
40454;DHT22;26160;51.858;4.398;2022-10-18T18:10:39;12.60;99.90
40454;DHT22;26160;51.858;4.398;2022-10-18T18:13:07;12.50;99.90
40454;DHT22;26160;51.858;4.398;2022-10-18T18:15:33;12.40;99.90
40454;DHT22;26160;51.858;4.398;2022-10-18T18:18:01;12.40;99.90
40454;DHT22;26160;51.858;4.398;2022-10-18T18:20:27;12.30;99.90
40454;DHT22;26160;51.858;4.398;2022-10-18T18:22:54;12.20;99.90
40454;DHT22;26160;51.858;4.398;2022-10-18T18:25:21;12.10;99.90
40454;DHT22;26160;51.858;4.398;2022-10-18T18:27:47;12.00;99.90
40454;DHT22;26160;51.858;4.398;2022-10-18T18:30:13;11.90;99.90
40454;DHT22;26160;51.858;4.398;2022-10-18T18:32:40;11.90;99.90
40454;DHT22;26160;51.858;4.398;2022-10-18T18:35:06;11.80;99.90
40454;DHT22;26160;51.858;4.398;2022-10-18T18:37:32;11.70;99.90
40454;DHT22;26160;51.858;4.398;2022-10-18T18:39:58;11.70;99.90
40454;DHT22;26160;51.858;4.398;2022-10-18T18:42:25;11.50;99.90
40454;DHT22;26160;51.858;4.398;2022-10-18T18:44:51;11.50;99.90
40454;DHT22;26160;51.858;4.398;2022-10-18T18:47:17;11.40;99.90
40454;DHT22;26160;51.858;4.398;2022-10-18T18:49:46;11.40;99.90
40454;DHT22;26160;51.858;4.398;2022-10-18T18:52:12;11.30;99.90
40454;DHT22;26160;51.858;4.398;2022-10-18T18:54:39;11.30;99.90
40454;DHT22;26160;51.858;4.398;2022-10-18T18:57:05;11.20;99.90
40454;DHT22;26160;51.858;4.398;2022-10-18T18:59:32;11.20;99.90
40454;DHT22;26160;51.858;4.398;2022-10-18T19:01:58;11.10;99.90
40454;DHT22;26160;51.858;4.398;2022-10-18T19:04:24;11.00;99.90
40454;DHT22;26160;51.858;4.398;2022-10-18T19:06:50;11.00;99.90
40454;DHT22;26160;51.858;4.398;2022-10-18T19:09:17;11.00;99.90
40454;DHT22;26160;51.858;4.398;2022-10-18T19:11:47;10.90;99.90
40454;DHT22;26160;51.858;4.398;2022-10-18T19:14:14;10.90;99.90
40454;DHT22;26160;51.858;4.398;2022-10-18T19:16:48;10.80;99.90
40454;DHT22;26160;51.858;4.398;2022-10-18T19:19:16;10.80;99.90
40454;DHT22;26160;51.858;4.398;2022-10-18T19:21:45;10.80;99.90
40454;DHT22;26160;51.858;4.398;2022-10-18T19:24:12;10.80;99.90
40454;DHT22;26160;51.858;4.398;2022-10-18T19:26:41;10.70;99.90
40454;DHT22;26160;51.858;4.398;2022-10-18T19:29:31;10.70;99.90
40454;DHT22;26160;51.858;4.398;2022-10-18T19:32:00;10.70;99.90
40454;DHT22;26160;51.858;4.398;2022-10-18T19:34:27;10.70;99.90
40454;DHT22;26160;51.858;4.398;2022-10-18T19:36:54;10.60;99.90
40454;DHT22;26160;51.858;4.398;2022-10-18T19:39:28;10.60;99.90
40454;DHT22;26160;51.858;4.398;2022-10-18T19:41:56;10.60;99.90
40454;DHT22;26160;51.858;4.398;2022-10-18T19:44:24;10.60;99.90
40454;DHT22;26160;51.858;4.398;2022-10-18T19:46:52;10.60;99.90
40454;DHT22;26160;51.858;4.398;2022-10-18T19:49:18;10.60;99.90
40454;DHT22;26160;51.858;4.398;2022-10-18T19:51:44;10.60;99.90
40454;DHT22;26160;51.858;4.398;2022-10-18T19:54:11;10.70;99.90
40454;DHT22;26160;51.858;4.398;2022-10-18T19:56:38;10.70;99.90
40454;DHT22;26160;51.858;4.398;2022-10-18T19:59:07;10.70;99.90
40454;DHT22;26160;51.858;4.398;2022-10-18T20:01:33;10.70;99.90
40454;DHT22;26160;51.858;4.398;2022-10-18T20:03:59;10.80;99.90
40454;DHT22;26160;51.858;4.398;2022-10-18T20:06:26;10.90;99.90
40454;DHT22;26160;51.858;4.398;2022-10-18T20:08:52;10.80;99.90
40454;DHT22;26160;51.858;4.398;2022-10-18T20:11:23;10.90;99.90
40454;DHT22;26160;51.858;4.398;2022-10-18T20:13:50;10.90;99.90
40454;DHT22;26160;51.858;4.398;2022-10-18T20:16:18;10.90;99.90
40454;DHT22;26160;51.858;4.398;2022-10-18T20:18:45;10.90;99.90
40454;DHT22;26160;51.858;4.398;2022-10-18T20:21:15;10.90;99.90
40454;DHT22;26160;51.858;4.398;2022-10-18T20:23:42;10.90;99.90
40454;DHT22;26160;51.858;4.398;2022-10-18T20:26:13;10.90;99.90
40454;DHT22;26160;51.858;4.398;2022-10-18T20:28:41;10.90;99.90
40454;DHT22;26160;51.858;4.398;2022-10-18T20:31:10;10.90;99.90
40454;DHT22;26160;51.858;4.398;2022-10-18T20:33:37;10.90;99.90
40454;DHT22;26160;51.858;4.398;2022-10-18T20:36:09;10.80;99.90
40454;DHT22;26160;51.858;4.398;2022-10-18T20:38:37;10.80;99.90
40454;DHT22;26160;51.858;4.398;2022-10-18T20:41:18;10.60;99.90
40454;DHT22;26160;51.858;4.398;2022-10-18T20:43:52;10.60;99.90
40454;DHT22;26160;51.858;4.398;2022-10-18T20:46:19;10.50;99.90
40454;DHT22;26160;51.858;4.398;2022-10-18T20:48:45;10.50;99.90
40454;DHT22;26160;51.858;4.398;2022-10-18T20:51:12;10.30;99.90
40454;DHT22;26160;51.858;4.398;2022-10-18T20:53:39;10.30;99.90
40454;DHT22;26160;51.858;4.398;2022-10-18T20:56:10;10.30;99.90
40454;DHT22;26160;51.858;4.398;2022-10-18T20:58:38;10.20;99.90
40454;DHT22;26160;51.858;4.398;2022-10-18T21:01:10;10.10;99.90
40454;DHT22;26160;51.858;4.398;2022-10-18T21:03:41;10.10;99.90
40454;DHT22;26160;51.858;4.398;2022-10-18T21:06:13;10.00;99.90
40454;DHT22;26160;51.858;4.398;2022-10-18T21:08:40;10.00;99.90
40454;DHT22;26160;51.858;4.398;2022-10-18T21:11:07;9.90;99.90
40454;DHT22;26160;51.858;4.398;2022-10-18T21:13:33;9.90;99.90
40454;DHT22;26160;51.858;4.398;2022-10-18T21:16:00;9.90;99.90
40454;DHT22;26160;51.858;4.398;2022-10-18T21:18:29;9.80;99.90
40454;DHT22;26160;51.858;4.398;2022-10-18T21:21:06;9.80;99.90
40454;DHT22;26160;51.858;4.398;2022-10-18T21:23:32;9.70;99.90
40454;DHT22;26160;51.858;4.398;2022-10-18T21:25:59;9.60;99.90
40454;DHT22;26160;51.858;4.398;2022-10-18T21:28:25;9.60;99.90
40454;DHT22;26160;51.858;4.398;2022-10-18T21:30:52;9.60;99.90
40454;DHT22;26160;51.858;4.398;2022-10-18T21:33:20;9.50;99.90
40454;DHT22;26160;51.858;4.398;2022-10-18T21:35:46;9.50;99.90
40454;DHT22;26160;51.858;4.398;2022-10-18T21:38:12;9.40;99.90
40454;DHT22;26160;51.858;4.398;2022-10-18T21:40:38;9.40;99.90
40454;DHT22;26160;51.858;4.398;2022-10-18T21:43:09;9.50;99.90
40454;DHT22;26160;51.858;4.398;2022-10-18T21:45:36;9.30;99.90
40454;DHT22;26160;51.858;4.398;2022-10-18T21:48:03;9.30;99.90
40454;DHT22;26160;51.858;4.398;2022-10-18T21:50:29;9.30;99.90
40454;DHT22;26160;51.858;4.398;2022-10-18T21:52:55;9.30;99.90
40454;DHT22;26160;51.858;4.398;2022-10-18T21:55:21;9.20;99.90
40454;DHT22;26160;51.858;4.398;2022-10-18T21:57:47;9.20;99.90
40454;DHT22;26160;51.858;4.398;2022-10-18T22:00:15;9.30;99.90
40454;DHT22;26160;51.858;4.398;2022-10-18T22:02:41;9.30;99.90
40454;DHT22;26160;51.858;4.398;2022-10-18T22:05:07;9.30;99.90
40454;DHT22;26160;51.858;4.398;2022-10-18T22:07:33;9.30;99.90
40454;DHT22;26160;51.858;4.398;2022-10-18T22:09:59;9.20;99.90
40454;DHT22;26160;51.858;4.398;2022-10-18T22:12:26;9.20;99.90
40454;DHT22;26160;51.858;4.398;2022-10-18T22:14:52;9.20;99.90
40454;DHT22;26160;51.858;4.398;2022-10-18T22:17:20;9.20;99.90
40454;DHT22;26160;51.858;4.398;2022-10-18T22:19:48;9.10;99.90
40454;DHT22;26160;51.858;4.398;2022-10-18T22:22:14;9.10;99.90
40454;DHT22;26160;51.858;4.398;2022-10-18T22:24:40;9.10;99.90
40454;DHT22;26160;51.858;4.398;2022-10-18T22:27:06;9.10;99.90
40454;DHT22;26160;51.858;4.398;2022-10-18T22:29:32;9.10;99.90